YXGH weather

Goulburn Hospital Helipad
Goulburn, New South Wales, Australia

Public forecast

Using degrees Celsius for public forecast. Weather courtesy of forecast.io.

Closest aviation weather report (METAR) to Goulburn Hospital Helipad

Closest report is Canberra International Airport, 42.1 nm (78.0 km) SW. Retrieved 2020/02/18 00:30 UTC (0 seconds ago):

YSCB 180030Z AUTO 34013KT 9999 // SCT021 24/18 Q1010 RF000/0000 INTER 0400/0430 VRB30G45KT 2000 TSRA BKN015 SCT040CB

Closest aviation forecast (TAF) to Goulburn Hospital Helipad

Forecast is more than 6 hours old.

Closest forecast is Canberra International Airport, 42.1 nm (78.0 km) SW. Retrieved 2020/02/17 18:00 UTC (6 hours ago):

TAF YSCB 171723Z 1718/1818 VRB03KT 9999 SCT015 FM172300 33008KT 9999 SCT020 FM180300 32014KT 9999 -SHRA SCT040 FM181100 29010KT 9999 NSW SCT080 TEMPO 1718/1723 9999 BKN012 PROB30 INTER 1803/1810 VRB30G45KT 2000 TSRA BKN015 SCT040CB